Latest Weather Observations for Wagga Wagga

IDN60801

Issued at 7:33 am EST Saturday 25 June 2016 (issued every 30 minutes, with the page automatically refreshed every 10 minutes)

About weather observations | Map of weather stations | Latest weather observations for NSW | Other Formats
Station Details ID: 072150 Name: WAGGA WAGGA AMO Lat: -35.16 Lon: 147.46 Height: 212.0 m
Data from the previous 72 hours. | See also: Recent months at Wagga Wagga
Date/Time
EST
Temp
°C
App
Temp
°C
Dew
Point
°C
Rel
Hum
%
Delta-T
°C
Wind Press
QNH
hPa
Press
MSL
hPa
Rain since
9am
mm
Dir  Spd
km/h
Gust
km/h
Spd
kts
Gust
kts
25/07:30am 1.7 -1.9 0.4 91 0.5 NNE 9 11 5 6 1021.7 1022.1 3.4
25/07:21am 1.2 -2.1 0.1 92 0.4 NNE 7 9 4 5 1021.7 1022.1 3.4
25/07:00am 1.5 -1.6 0.1 90 0.5 NE 6 9 3 5 1021.2 1021.6 3.4
25/06:30am 1.2 -1.5 0.1 92 0.4 WSW 4 7 2 4 1020.6 1020.9 3.4
25/06:08am 1.5 -2.1 0.4 92 0.4 SSW 9 11 5 6 1020.3 1020.6 3.4
25/06:00am 1.7 -1.9 0.6 92 0.4 S 9 13 5 7 1020.3 1020.6 3.4
25/05:30am 2.7 0.5 0.9 88 0.7 NNE 2 7 1 4 1020.1 1020.4 3.4
25/05:00am 2.8 -0.7 1.0 88 0.7 NW 9 11 5 6 1019.9 1020.2 3.4
25/04:30am 2.9 -1.0 1.1 88 0.7 W 11 15 6 8 1019.5 1019.8 3.4
25/04:02am 2.9 -1.4 0.8 86 0.8 SW 13 17 7 9 1019.5 1019.8 3.4
25/04:00am 2.9 -1.4 0.8 86 0.8 SW 13 19 7 10 1019.5 1019.8 3.4
25/03:30am 2.8 -3.2 1.0 88 0.7 SW 22 32 12 17 1018.8 1019.2 3.4
25/03:00am 3.3 -3.9 1.0 85 0.9 WSW 28 35 15 19 1018.5 1018.9 3.4
25/02:30am 2.9 -4.2 1.1 88 0.7 SW 28 35 15 19 1018.5 1018.9 3.4
25/02:29am 2.9 -4.2 1.1 88 0.7 SW 28 35 15 19 1018.5 1018.9 3.4
25/02:00am 2.8 -1.9 0.7 86 0.8 SW 15 17 8 9 1018.5 1018.9 3.4
25/01:30am 3.3 -2.7 1.0 85 0.9 WSW 22 30 12 16 1017.9 1018.3 3.4
25/01:00am 3.2 -2.2 1.1 86 0.8 W 19 26 10 14 1017.8 1018.2 3.4
25/12:30am 3.4 -2.2 1.1 85 0.9 W 20 26 11 14 1017.7 1018.1 3.4
25/12:00am 3.3 -1.7 1.5 88 0.7 W 17 22 9 12 1017.4 1017.8 3.4
 
Date/Time
EST
Temp
°C
App
Temp
°C
Dew
Point
°C
Rel
Hum
%
Delta-T
°C
Wind Press
QNH
hPa
Press
MSL
hPa
Rain since
9am
mm
Dir  Spd
km/h
Gust
km/h
Spd
kts
Gust
kts
24/11:30pm 3.5 -1.8 1.7 88 0.7 W 19 28 10 15 1017.2 1017.6 3.4
24/11:00pm 3.9 -2.0 1.4 84 1.0 W 22 28 12 15 1016.8 1017.1 3.4
24/10:30pm 3.9 -1.1 1.6 85 0.9 W 17 20 9 11 1016.8 1017.1 3.4
24/10:00pm 3.9 -0.3 1.9 87 0.8 WSW 13 15 7 8 1016.4 1016.7 3.4
24/09:30pm 4.5 0.0 2.0 84 1.0 W 15 20 8 11 1015.8 1016.1 3.4
24/09:00pm 4.7 -0.2 2.0 83 1.1 W 17 28 9 15 1015.2 1015.5 3.4
24/08:30pm 4.9 -1.0 1.7 80 1.3 W 22 35 12 19 1014.7 1015.0 3.4
24/08:00pm 4.9 0.0 1.9 81 1.2 WNW 17 22 9 12 1014.5 1014.8 3.4
24/07:30pm 5.0 0.1 2.0 81 1.2 W 17 22 9 12 1014.0 1014.4 3.4
24/07:00pm 5.1 -0.4 1.9 80 1.3 W 20 32 11 17 1013.3 1013.7 3.4
24/06:30pm 5.0 -0.9 1.5 78 1.4 W 22 30 12 16 1012.6 1012.9 3.4
24/06:05pm 4.7 -3.0 2.2 84 1.0 WSW 32 39 17 21 1012.2 1012.5 3.4
24/06:00pm 4.8 -2.9 2.4 84 1.0 WSW 32 39 17 21 1012.0 1012.3 3.4
24/05:46pm 5.7 -1.8 3.6 86 0.9 WSW 32 63 17 34 1011.9 1012.2 3.2
24/05:45pm 6.0 -1.4 3.9 86 0.9 WSW 32 63 17 34 1011.9 1012.2 2.8
24/05:30pm 7.0 -0.3 2.5 73 1.9 W 30 37 16 20 1011.0 1011.3 2.4
24/05:00pm 7.2 -0.6 1.9 69 2.2 W 32 44 17 24 1010.0 1010.3 2.4
24/04:30pm 7.5 -0.1 2.8 72 2.0 WSW 32 41 17 22 1009.4 1009.7 2.4
24/04:00pm 7.4 -0.1 3.7 77 1.6 WSW 32 39 17 21 1008.8 1009.1 2.4
24/03:30pm 6.6 0.4 4.3 85 1.0 W 26 33 14 18 1008.5 1008.8 1.8
24/03:00pm 6.6 0.6 3.6 81 1.3 WSW 24 35 13 19 1008.0 1008.3 1.8
24/02:30pm 5.5 -2.5 3.6 87 0.8 SW 35 50 19 27 1007.6 1007.9 1.8
24/02:29pm 5.5 -2.5 3.9 89 0.7 SW 35 54 19 29 1007.6 1007.9 1.8
24/02:16pm 5.5 -1.2 3.6 87 0.8 WSW 28 46 15 25 1007.2 1007.5 1.8
24/02:00pm 5.9 -1.2 3.8 86 0.9 WSW 30 41 16 22 1006.8 1007.1 1.4
24/01:30pm 6.1 -1.4 4.5 89 0.7 W 33 48 18 26 1006.4 1006.7 1.4
24/01:00pm 5.5 -2.0 3.6 87 0.8 W 32 41 17 22 1006.3 1006.6 0.6
24/12:30pm 7.4 2.0 4.7 83 1.2 WNW 22 35 12 19 1006.3 1006.6 0.4
24/12:00pm 6.8 0.7 4.8 87 0.9 W 26 33 14 18 1006.4 1006.7 0.0
24/11:30am 7.7 0.7 4.3 79 1.5 W 30 39 16 21 1006.6 1006.9 0.0
24/11:00am 7.6 0.1 3.4 75 1.8 W 32 41 17 22 1006.9 1007.2 0.0
24/10:30am 7.4 -0.2 4.0 79 1.5 W 33 46 18 25 1007.0 1007.3 0.0
24/10:00am 7.7 -0.8 3.3 74 1.9 W 37 50 20 27 1006.8 1007.1 0.0
24/09:54am 7.9 -0.6 3.3 73 2.0 W 37 48 20 26 1006.7 1007.0 0.0
24/09:30am 7.6 0.3 5.4 86 1.0 W 33 48 18 26 1006.3 1006.6 0.0
24/09:13am 7.2 -0.1 4.7 84 1.1 W 32 41 17 22 1006.1 1006.4 0.0
24/09:00am 7.2 0.2 4.2 81 1.3 W 30 41 16 22 1006.0 1006.3 5.8
24/08:41am 7.2 0.3 4.5 83 1.2 WNW 30 48 16 26 1005.8 1006.1 5.8
24/08:30am 7.2 -0.2 4.2 81 1.3 WNW 32 44 17 24 1005.7 1006.0 5.8
24/08:06am 7.0 0.2 5.2 88 0.8 WNW 30 37 16 20 1005.4 1005.6 5.8
24/08:00am 7.0 1.0 5.2 88 0.8 WNW 26 37 14 20 1005.4 1005.6 5.8
24/07:37am 7.0 0.1 4.8 86 1.0 W 30 41 16 22 1005.1 1005.3 5.6
24/07:30am 7.0 -0.7 5.2 88 0.8 WNW 35 46 19 25 1005.1 1005.3 5.6
24/07:12am 7.3 0.5 5.3 87 0.9 WNW 30 43 16 23 1004.8 1005.0 5.2
24/07:00am 7.2 0.8 5.4 88 0.8 WNW 28 37 15 20 1004.6 1004.8 5.2
24/06:36am 7.4 2.9 5.9 90 0.7 WNW 19 24 10 13 1004.6 1004.8 5.0
24/06:30am 7.3 2.6 6.0 91 0.6 WNW 20 28 11 15 1004.6 1004.8 5.0
24/06:17am 7.2 2.7 6.1 93 0.5 WNW 19 28 10 15 1004.5 1004.7 4.8
24/06:14am 7.2 2.7 6.1 93 0.5 WNW 19 26 10 14 1004.4 1004.6 4.6
24/06:00am 7.4 2.7 5.9 90 0.7 WNW 20 30 11 16 1004.3 1004.5 4.2
24/05:30am 7.5 3.3 5.5 87 0.9 NW 17 22 9 12 1004.1 1004.4 4.2
24/05:00am 7.4 4.1 6.3 93 0.5 NW 13 17 7 9 1004.0 1004.3 4.2
24/04:30am 7.4 4.9 6.5 94 0.4 WNW 9 13 5 7 1003.8 1004.1 4.2
24/04:00am 7.3 4.7 6.2 93 0.5 NW 9 11 5 6 1003.6 1003.9 4.0
24/03:30am 7.2 4.9 5.7 90 0.7 NNW 7 11 4 6 1003.4 1003.7 4.0
24/03:00am 7.4 4.4 6.1 91 0.6 W 11 13 6 7 1003.9 1004.2 4.0
24/02:30am 7.5 4.8 5.5 87 0.9 W 9 11 5 6 1003.5 1003.8 3.8
24/02:08am 7.6 3.3 5.4 86 1.0 WSW 17 24 9 13 1003.6 1003.9 3.8
24/02:00am 7.7 3.5 5.5 86 1.0 WSW 17 24 9 13 1003.5 1003.8 3.8
24/01:32am 7.9 3.4 6.8 93 0.5 WSW 20 26 11 14 1003.3 1003.6 3.8
24/01:30am 7.9 3.4 6.8 93 0.5 WSW 20 30 11 16 1003.3 1003.6 3.8
24/01:16am 7.7 2.0 6.6 93 0.5 WSW 26 37 14 20 1003.3 1003.6 3.8
24/01:00am 8.0 0.1 6.3 89 0.8 W 37 61 20 33 1003.3 1003.6 3.6
24/12:58am 8.1 0.6 6.2 88 0.9 WNW 35 61 19 33 1003.2 1003.5 3.6
24/12:55am 8.6 2.1 6.5 87 1.0 NW 30 61 16 33 1003.1 1003.4 3.2
24/12:54am 9.1 3.0 6.8 85 1.1 NW 28 61 15 33 1003.1 1003.4 3.0
24/12:30am 11.1 7.3 8.9 86 1.1 NNW 19 28 10 15 1002.6 1002.9 2.4
24/12:00am 11.0 7.2 9.2 89 0.9 NW 19 26 10 14 1003.4 1003.7 2.4
 
Date/Time
EST
Temp
°C
App
Temp
°C
Dew
Point
°C
Rel
Hum
%
Delta-T
°C
Wind Press
QNH
hPa
Press
MSL
hPa
Rain since
9am
mm
Dir  Spd
km/h
Gust
km/h
Spd
kts
Gust
kts
23/11:50pm 11.1 7.2 9.3 89 0.9 NW 20 30 11 16 1003.5 1003.8 2.4
23/11:32pm 11.0 7.3 9.6 91 0.7 NW 19 28 10 15 1003.8 1004.1 2.4
23/11:30pm 11.0 7.3 9.6 91 0.7 NW 19 28 10 15 1003.8 1004.1 2.4
23/11:00pm 10.9 7.6 9.5 91 0.7 NW 17 24 9 13 1003.9 1004.2 2.4
23/10:30pm 10.7 7.7 9.3 91 0.7 NNW 15 20 8 11 1004.0 1004.3 2.4
23/10:00pm 10.6 7.5 9.0 90 0.8 NW 15 19 8 10 1003.9 1004.2 2.4
23/09:30pm 10.4 7.9 9.6 95 0.4 NNW 13 17 7 9 1004.0 1004.3 2.4
23/09:00pm 10.4 8.3 9.8 96 0.3 NW 11 15 6 8 1003.9 1004.2 2.4
23/08:58pm 10.4 8.3 9.8 96 0.3 NW 11 15 6 8 1003.9 1004.2 2.4
23/08:52pm 10.4 7.9 9.8 96 0.3 NW 13 20 7 11 1003.9 1004.2 2.4
23/08:33pm 10.4 9.1 10.0 97 0.2 NW 7 13 4 7 1004.0 1004.3 1.8
23/08:32pm 10.4 9.1 10.0 97 0.2 NW 7 13 4 7 1004.0 1004.3 1.8
23/08:30pm 10.4 9.1 10.0 97 0.2 NW 7 11 4 6 1003.9 1004.2 1.6
23/08:08pm 10.7 9.0 9.7 93 0.5 WNW 9 13 5 7 1003.9 1004.2 0.8
23/08:05pm 10.7 9.0 9.7 93 0.5 WNW 9 13 5 7 1003.9 1004.2 0.8
23/08:00pm 10.8 9.0 9.6 92 0.6 NW 9 13 5 7 1004.0 1004.3 0.4
23/07:30pm 11.1 8.4 9.1 87 1.0 NNW 13 22 7 12 1004.4 1004.6 0.2
23/07:00pm 11.6 8.5 8.8 83 1.4 N 15 20 8 11 1004.5 1004.7 0.0
23/06:30pm 11.2 9.1 9.6 90 0.8 NNE 11 13 6 7 1004.5 1004.7 0.0
23/06:00pm 10.8 8.6 9.4 91 0.7 NE 11 17 6 9 1004.7 1004.9 0.0
23/05:30pm 10.9 9.1 9.3 90 0.8 NNE 9 13 5 7 1005.2 1005.4 0.0
23/05:00pm 11.1 8.9 9.3 89 0.9 N 11 13 6 7 1005.4 1005.6 0.0
23/04:30pm 11.7 8.9 8.5 81 1.6 N 13 22 7 12 1005.5 1005.8 0.0
23/04:00pm 11.3 8.8 8.3 82 1.5 NNW 11 15 6 8 1005.8 1006.1 0.0
23/03:30pm 11.6 7.8 7.7 77 1.9 NNW 17 26 9 14 1006.2 1006.5 0.0
23/03:00pm 12.2 8.5 8.0 75 2.1 N 17 22 9 12 1006.3 1006.6 0.0
23/02:30pm 12.7 8.9 7.7 71 2.5 N 17 24 9 13 1006.7 1007.0 0.0
23/02:00pm 12.5 8.7 7.7 72 2.4 N 17 26 9 14 1007.1 1007.4 0.0
23/01:30pm 12.0 8.1 7.3 73 2.3 NNW 17 22 9 12 1007.9 1008.2 0.0
23/01:00pm 11.9 7.3 6.5 69 2.6 NNW 20 28 11 15 1008.4 1008.7 0.0
23/12:30pm 12.1 7.5 6.7 69 2.6 NNW 20 30 11 16 1008.8 1009.1 0.0
23/12:00pm 11.9 7.1 7.2 73 2.3 NNW 22 33 12 18 1009.7 1010.0 0.0
23/11:30am 11.8 7.4 7.5 75 2.1 NNW 20 28 11 15 1010.3 1010.6 0.0
23/11:00am 11.9 7.5 7.6 75 2.1 NNW 20 30 11 16 1010.7 1011.0 0.0
23/10:30am 12.1 9.2 8.3 77 1.9 N 13 17 7 9 1011.0 1011.3 0.0
23/10:00am 10.8 8.7 8.4 85 1.2 NNE 9 17 5 9 1011.4 1011.7 0.0
23/09:30am 10.4 8.6 8.0 85 1.2 N 7 11 4 6 1011.5 1011.8 0.0
23/09:00am 10.1 7.6 8.1 87 1.0 NNW 11 13 6 7 1011.5 1011.8 0.0
23/08:30am 9.9 6.9 7.8 87 1.0 NNW 13 17 7 9 1011.3 1011.6 0.0
23/08:00am 9.5 6.5 7.6 88 0.9 NNW 13 17 7 9 1011.4 1011.7 0.0
23/07:30am 9.6 6.6 7.5 87 1.0 NNW 13 17 7 9 1011.3 1011.6 0.0
23/07:00am 9.7 6.6 7.2 84 1.2 NNW 13 17 7 9 1011.2 1011.5 0.0
23/06:30am 9.5 7.5 7.0 84 1.2 WNW 7 13 4 7 1011.3 1011.6 0.0
23/06:00am 9.2 6.4 7.1 87 1.0 W 11 15 6 8 1011.2 1011.5 0.0
23/05:30am 9.5 7.0 6.5 81 1.4 NNW 9 13 5 7 1010.8 1011.1 0.0
23/05:00am 9.4 6.9 6.6 83 1.3 N 9 11 5 6 1011.0 1011.3 0.0
23/04:30am 9.4 6.9 6.6 83 1.3 NNW 9 11 5 6 1011.3 1011.6 0.0
23/04:00am 9.2 7.1 6.7 84 1.2 NW 7 9 4 5 1011.4 1011.7 0.0
23/03:30am 9.0 8.3 6.9 87 1.0 CALM 0 0 0 0 1011.6 1011.9 0.0
23/03:00am 9.2 8.5 6.9 85 1.1 CALM 0 0 0 0 1011.6 1011.9 0.0
23/02:30am 9.3 8.6 7.0 85 1.1 CALM 0 0 0 0 1011.8 1012.1 0.0
23/02:00am 9.3 7.8 7.0 85 1.1 NNW 4 9 2 5 1012.2 1012.5 0.0
23/01:30am 8.5 7.9 7.2 91 0.6 CALM 0 0 0 0 1012.2 1012.5 0.0
23/01:00am 8.3 7.7 7.2 93 0.5 CALM 0 0 0 0 1012.5 1012.8 0.0
23/12:30am 8.1 7.4 6.8 91 0.6 CALM 0 0 0 0 1012.6 1012.9 0.0
23/12:00am 8.2 7.5 6.9 91 0.6 CALM 0 0 0 0 1012.6 1012.9 0.0
 
Date/Time
EST
Temp
°C
App
Temp
°C
Dew
Point
°C
Rel
Hum
%
Delta-T
°C
Wind Press
QNH
hPa
Press
MSL
hPa
Rain since
9am
mm
Dir  Spd
km/h
Gust
km/h
Spd
kts
Gust
kts
22/11:30pm 9.0 8.3 7.1 88 0.9 CALM 0 0 0 0 1012.8 1013.1 0.0
22/11:00pm 8.7 7.6 7.0 89 0.8 NE 2 6 1 3 1013.1 1013.4 0.0
22/10:30pm 8.7 6.7 7.0 89 0.8 E 7 7 4 4 1013.1 1013.4 0.0
22/10:00pm 9.3 7.8 7.0 85 1.1 NE 4 7 2 4 1013.1 1013.4 0.0
22/09:30pm 9.5 7.5 7.2 85 1.1 N 7 9 4 5 1013.1 1013.4 0.0
22/09:00pm 9.5 7.7 7.2 85 1.1 NNE 6 9 3 5 1013.1 1013.4 0.0
22/08:30pm 9.9 7.8 6.7 80 1.5 NNW 7 9 4 5 1013.0 1013.3 0.0
22/08:00pm 10.0 8.1 6.9 81 1.5 NNW 6 9 3 5 1012.8 1013.1 0.0
22/07:30pm 9.9 7.4 6.5 79 1.6 NW 9 13 5 7 1012.5 1012.8 0.0
22/07:00pm 9.8 7.7 6.6 80 1.5 NW 7 9 4 5 1012.2 1012.5 0.0
22/06:30pm 10.4 7.5 6.4 76 1.9 NW 11 13 6 7 1011.8 1012.1 0.0
22/06:00pm 10.2 8.3 6.8 79 1.6 W 6 7 3 4 1011.3 1011.6 0.0
22/05:30pm 10.4 7.5 6.6 77 1.8 WNW 11 13 6 7 1010.8 1011.1 0.0
22/05:00pm 10.7 7.4 6.3 74 2.1 W 13 19 7 10 1010.3 1010.6 0.0
22/04:30pm 11.6 6.0 5.4 65 2.9 W 24 30 13 16 1010.0 1010.3 0.0
22/04:00pm 11.9 7.4 6.0 67 2.8 WNW 19 28 10 15 1009.9 1010.2 0.0
22/03:30pm 12.2 7.4 5.6 64 3.1 W 20 30 11 16 1009.7 1010.0 0.0
22/03:00pm 12.3 6.8 5.8 64 3.1 W 24 37 13 20 1009.5 1009.8 0.0
22/02:30pm 12.0 6.4 5.6 65 3.0 W 24 35 13 19 1009.0 1009.3 0.0
22/02:00pm 11.8 6.3 6.1 68 2.7 W 24 32 13 17 1008.8 1009.1 0.0
22/01:30pm 11.7 5.5 6.0 68 2.7 W 28 35 15 19 1008.7 1009.0 0.0
22/01:00pm 11.4 5.3 6.4 71 2.4 W 28 35 15 19 1008.7 1009.0 0.0
22/12:30pm 11.8 5.3 6.4 69 2.6 W 30 37 16 20 1008.7 1009.0 0.0
22/12:00pm 11.5 5.3 6.3 70 2.5 W 28 39 15 21 1008.9 1009.2 0.0
22/11:30am 11.1 4.2 6.3 72 2.3 W 32 43 17 23 1008.9 1009.2 0.0
22/11:00am 11.9 5.6 7.4 74 2.2 W 30 39 16 21 1008.5 1008.8 0.0
22/10:30am 10.8 4.6 8.0 83 1.4 W 30 39 16 21 1008.4 1008.7 0.0
22/10:14am 10.9 5.6 8.5 85 1.2 WNW 26 35 14 19 1008.2 1008.5 0.0
22/10:00am 10.1 4.5 8.7 91 0.7 W 28 37 15 20 1008.2 1008.5 0.0
22/09:59am 10.1 4.5 8.7 91 0.7 W 28 37 15 20 1008.1 1008.4 0.0
22/09:30am 10.3 5.8 8.7 90 0.8 WNW 22 30 12 16 1007.6 1007.9 0.0
22/09:00am 9.8 5.7 8.6 92 0.6 WNW 20 26 11 14 1007.4 1007.7 11.8
22/08:30am 9.7 4.4 8.3 91 0.7 W 26 32 14 17 1006.8 1007.1 11.8
22/08:00am 9.6 4.0 8.8 95 0.4 W 28 39 15 21 1006.4 1006.7 11.6
22/07:44am 9.8 4.5 8.6 92 0.6 WNW 26 37 14 20 1005.9 1006.2 11.6
22/07:38am 9.9 4.3 8.7 92 0.6 WNW 28 37 15 20 1005.8 1006.1 11.6

Other Formats:

Comma delimited format used in spreadsheet applications
http://www.bom.gov.au/fwo/IDN60801/IDN60801.94910.axf

JavaScript Object Notation format (JSON) in row-major order
http://www.bom.gov.au/fwo/IDN60801/IDN60801.94910.json